sensor_id;sensor_type;location;lat;lon;timestamp;P1;durP1;ratioP1;P2;durP2;ratioP2
72406;SDS011;60396;47.550;18.828;2023-02-28T00:01:35;9.57;;;4.35;;
72406;SDS011;60396;47.550;18.828;2023-02-28T00:04:03;13.00;;;5.12;;
72406;SDS011;60396;47.550;18.828;2023-02-28T00:06:31;13.97;;;5.03;;
72406;SDS011;60396;47.550;18.828;2023-02-28T00:08:58;13.27;;;5.03;;
72406;SDS011;60396;47.550;18.828;2023-02-28T00:11:26;16.52;;;6.22;;
72406;SDS011;60396;47.550;18.828;2023-02-28T00:13:54;14.80;;;5.93;;
72406;SDS011;60396;47.550;18.828;2023-02-28T00:16:22;12.00;;;5.53;;
72406;SDS011;60396;47.550;18.828;2023-02-28T00:18:50;14.67;;;5.67;;
72406;SDS011;60396;47.550;18.828;2023-02-28T00:21:18;12.90;;;5.00;;
72406;SDS011;60396;47.550;18.828;2023-02-28T00:23:47;15.35;;;5.62;;
72406;SDS011;60396;47.550;18.828;2023-02-28T00:26:15;15.35;;;4.87;;
72406;SDS011;60396;47.550;18.828;2023-02-28T00:28:44;13.62;;;5.70;;
72406;SDS011;60396;47.550;18.828;2023-02-28T00:31:11;13.43;;;5.27;;
72406;SDS011;60396;47.550;18.828;2023-02-28T00:33:39;12.07;;;4.95;;
72406;SDS011;60396;47.550;18.828;2023-02-28T00:36:11;11.80;;;4.80;;
72406;SDS011;60396;47.550;18.828;2023-02-28T00:38:39;10.40;;;3.67;;
72406;SDS011;60396;47.550;18.828;2023-02-28T00:41:08;11.43;;;4.20;;
72406;SDS011;60396;47.550;18.828;2023-02-28T00:43:37;11.33;;;3.97;;
72406;SDS011;60396;47.550;18.828;2023-02-28T00:46:06;11.30;;;3.95;;
72406;SDS011;60396;47.550;18.828;2023-02-28T00:48:34;15.98;;;4.68;;
72406;SDS011;60396;47.550;18.828;2023-02-28T00:51:02;12.40;;;3.90;;
72406;SDS011;60396;47.550;18.828;2023-02-28T00:53:31;11.57;;;4.28;;
72406;SDS011;60396;47.550;18.828;2023-02-28T00:56:00;13.67;;;4.87;;
72406;SDS011;60396;47.550;18.828;2023-02-28T00:58:28;11.02;;;4.35;;
72406;SDS011;60396;47.550;18.828;2023-02-28T01:00:56;10.65;;;3.95;;
72406;SDS011;60396;47.550;18.828;2023-02-28T01:03:24;12.98;;;4.28;;
72406;SDS011;60396;47.550;18.828;2023-02-28T01:05:52;10.18;;;3.53;;
72406;SDS011;60396;47.550;18.828;2023-02-28T01:08:23;15.13;;;3.80;;
72406;SDS011;60396;47.550;18.828;2023-02-28T01:10:50;11.95;;;3.30;;
72406;SDS011;60396;47.550;18.828;2023-02-28T01:13:19;11.70;;;4.00;;
72406;SDS011;60396;47.550;18.828;2023-02-28T01:15:51;8.68;;;2.87;;
72406;SDS011;60396;47.550;18.828;2023-02-28T01:18:20;9.65;;;3.65;;
72406;SDS011;60396;47.550;18.828;2023-02-28T01:20:49;10.37;;;3.83;;
72406;SDS011;60396;47.550;18.828;2023-02-28T01:23:19;12.18;;;5.12;;
72406;SDS011;60396;47.550;18.828;2023-02-28T01:25:54;11.30;;;3.95;;
72406;SDS011;60396;47.550;18.828;2023-02-28T01:28:22;10.70;;;3.92;;
72406;SDS011;60396;47.550;18.828;2023-02-28T01:30:50;9.07;;;2.60;;
72406;SDS011;60396;47.550;18.828;2023-02-28T01:33:18;8.50;;;2.83;;
72406;SDS011;60396;47.550;18.828;2023-02-28T01:35:46;9.05;;;2.62;;
72406;SDS011;60396;47.550;18.828;2023-02-28T01:38:14;9.50;;;2.87;;
72406;SDS011;60396;47.550;18.828;2023-02-28T01:40:49;10.70;;;3.05;;
72406;SDS011;60396;47.550;18.828;2023-02-28T01:43:25;11.05;;;2.92;;
72406;SDS011;60396;47.550;18.828;2023-02-28T01:45:55;11.53;;;2.87;;
72406;SDS011;60396;47.550;18.828;2023-02-28T01:48:26;8.32;;;2.92;;
72406;SDS011;60396;47.550;18.828;2023-02-28T01:50:56;10.07;;;2.97;;
72406;SDS011;60396;47.550;18.828;2023-02-28T01:53:29;8.82;;;2.65;;
72406;SDS011;60396;47.550;18.828;2023-02-28T01:56:00;9.02;;;2.83;;
72406;SDS011;60396;47.550;18.828;2023-02-28T01:58:31;9.13;;;2.40;;
72406;SDS011;60396;47.550;18.828;2023-02-28T02:00:59;10.43;;;2.60;;
72406;SDS011;60396;47.550;18.828;2023-02-28T02:03:30;9.52;;;3.08;;
72406;SDS011;60396;47.550;18.828;2023-02-28T02:05:58;10.48;;;3.08;;
72406;SDS011;60396;47.550;18.828;2023-02-28T02:08:26;8.15;;;2.95;;
72406;SDS011;60396;47.550;18.828;2023-02-28T02:10:56;9.10;;;2.77;;
72406;SDS011;60396;47.550;18.828;2023-02-28T02:19:13;7.40;;;2.17;;
72406;SDS011;60396;47.550;18.828;2023-02-28T02:24:58;10.53;;;2.40;;
72406;SDS011;60396;47.550;18.828;2023-02-28T02:36:55;9.63;;;3.37;;
72406;SDS011;60396;47.550;18.828;2023-02-28T02:41:54;11.82;;;2.92;;
72406;SDS011;60396;47.550;18.828;2023-02-28T02:46:51;11.75;;;2.95;;
72406;SDS011;60396;47.550;18.828;2023-02-28T02:49:24;8.25;;;2.42;;
72406;SDS011;60396;47.550;18.828;2023-02-28T02:51:54;8.10;;;2.60;;
72406;SDS011;60396;47.550;18.828;2023-02-28T02:54:25;8.00;;;2.75;;
72406;SDS011;60396;47.550;18.828;2023-02-28T02:56:57;9.73;;;2.78;;
72406;SDS011;60396;47.550;18.828;2023-02-28T02:59:27;11.15;;;3.28;;
72406;SDS011;60396;47.550;18.828;2023-02-28T03:01:58;13.25;;;2.83;;
72406;SDS011;60396;47.550;18.828;2023-02-28T03:04:28;8.27;;;2.77;;
72406;SDS011;60396;47.550;18.828;2023-02-28T03:06:59;10.63;;;2.83;;
72406;SDS011;60396;47.550;18.828;2023-02-28T03:09:27;8.73;;;2.97;;
72406;SDS011;60396;47.550;18.828;2023-02-28T03:11:55;8.13;;;2.83;;
72406;SDS011;60396;47.550;18.828;2023-02-28T03:25:01;9.30;;;3.05;;
72406;SDS011;60396;47.550;18.828;2023-02-28T03:27:42;8.25;;;3.20;;
72406;SDS011;60396;47.550;18.828;2023-02-28T03:30:27;9.07;;;2.70;;
72406;SDS011;60396;47.550;18.828;2023-02-28T03:35:32;6.95;;;2.40;;
72406;SDS011;60396;47.550;18.828;2023-02-28T03:38:12;9.57;;;3.00;;
72406;SDS011;60396;47.550;18.828;2023-02-28T03:40:46;9.77;;;2.92;;
72406;SDS011;60396;47.550;18.828;2023-02-28T03:43:25;8.90;;;3.10;;
72406;SDS011;60396;47.550;18.828;2023-02-28T03:45:55;8.60;;;2.65;;
72406;SDS011;60396;47.550;18.828;2023-02-28T03:48:26;12.45;;;3.20;;
72406;SDS011;60396;47.550;18.828;2023-02-28T03:50:59;8.25;;;2.80;;
72406;SDS011;60396;47.550;18.828;2023-02-28T03:53:29;9.35;;;2.67;;
72406;SDS011;60396;47.550;18.828;2023-02-28T03:56:01;10.43;;;2.97;;
72406;SDS011;60396;47.550;18.828;2023-02-28T03:58:53;8.27;;;2.70;;
72406;SDS011;60396;47.550;18.828;2023-02-28T04:01:34;9.52;;;2.72;;
72406;SDS011;60396;47.550;18.828;2023-02-28T04:04:08;9.07;;;2.72;;
72406;SDS011;60396;47.550;18.828;2023-02-28T04:06:37;8.70;;;2.62;;
72406;SDS011;60396;47.550;18.828;2023-02-28T04:09:06;10.53;;;3.17;;
72406;SDS011;60396;47.550;18.828;2023-02-28T04:11:56;10.18;;;2.60;;
72406;SDS011;60396;47.550;18.828;2023-02-28T04:14:23;7.87;;;2.37;;
72406;SDS011;60396;47.550;18.828;2023-02-28T04:16:51;8.75;;;3.08;;
72406;SDS011;60396;47.550;18.828;2023-02-28T04:19:19;11.02;;;3.40;;
72406;SDS011;60396;47.550;18.828;2023-02-28T04:21:47;8.17;;;2.67;;
72406;SDS011;60396;47.550;18.828;2023-02-28T04:24:18;9.05;;;2.95;;
72406;SDS011;60396;47.550;18.828;2023-02-28T04:26:50;8.27;;;3.10;;
72406;SDS011;60396;47.550;18.828;2023-02-28T04:29:20;9.90;;;3.25;;
72406;SDS011;60396;47.550;18.828;2023-02-28T04:31:52;9.85;;;2.62;;
72406;SDS011;60396;47.550;18.828;2023-02-28T04:34:26;10.53;;;3.00;;
72406;SDS011;60396;47.550;18.828;2023-02-28T04:36:55;9.18;;;2.42;;
72406;SDS011;60396;47.550;18.828;2023-02-28T04:39:41;8.10;;;2.75;;
72406;SDS011;60396;47.550;18.828;2023-02-28T04:42:09;8.27;;;2.90;;
72406;SDS011;60396;47.550;18.828;2023-02-28T04:44:37;8.63;;;3.10;;
72406;SDS011;60396;47.550;18.828;2023-02-28T04:47:05;9.00;;;2.93;;
72406;SDS011;60396;47.550;18.828;2023-02-28T04:49:32;9.13;;;2.80;;
72406;SDS011;60396;47.550;18.828;2023-02-28T04:52:00;8.93;;;3.12;;
72406;SDS011;60396;47.550;18.828;2023-02-28T04:54:28;8.27;;;3.00;;
72406;SDS011;60396;47.550;18.828;2023-02-28T04:56:56;8.07;;;2.45;;
72406;SDS011;60396;47.550;18.828;2023-02-28T04:59:25;9.47;;;2.90;;
72406;SDS011;60396;47.550;18.828;2023-02-28T05:01:53;9.70;;;2.78;;
72406;SDS011;60396;47.550;18.828;2023-02-28T05:04:21;9.95;;;3.10;;
72406;SDS011;60396;47.550;18.828;2023-02-28T05:06:48;8.57;;;2.83;;
72406;SDS011;60396;47.550;18.828;2023-02-28T05:09:16;10.82;;;3.05;;
72406;SDS011;60396;47.550;18.828;2023-02-28T05:11:44;11.00;;;3.13;;
72406;SDS011;60396;47.550;18.828;2023-02-28T05:14:12;9.93;;;3.35;;
72406;SDS011;60396;47.550;18.828;2023-02-28T05:16:41;8.93;;;3.08;;
72406;SDS011;60396;47.550;18.828;2023-02-28T05:19:09;10.07;;;3.10;;
72406;SDS011;60396;47.550;18.828;2023-02-28T05:21:38;9.70;;;3.05;;
72406;SDS011;60396;47.550;18.828;2023-02-28T05:24:11;8.47;;;3.07;;
72406;SDS011;60396;47.550;18.828;2023-02-28T05:26:40;11.45;;;3.70;;
72406;SDS011;60396;47.550;18.828;2023-02-28T05:29:10;9.45;;;3.10;;
72406;SDS011;60396;47.550;18.828;2023-02-28T05:31:37;10.05;;;3.10;;
72406;SDS011;60396;47.550;18.828;2023-02-28T05:34:05;8.85;;;3.42;;
72406;SDS011;60396;47.550;18.828;2023-02-28T05:36:33;10.07;;;3.20;;
72406;SDS011;60396;47.550;18.828;2023-02-28T05:39:07;10.57;;;2.97;;
72406;SDS011;60396;47.550;18.828;2023-02-28T05:41:43;9.18;;;2.80;;
72406;SDS011;60396;47.550;18.828;2023-02-28T05:44:11;8.60;;;3.08;;
72406;SDS011;60396;47.550;18.828;2023-02-28T05:46:39;9.80;;;3.20;;
72406;SDS011;60396;47.550;18.828;2023-02-28T05:49:07;11.60;;;3.10;;
72406;SDS011;60396;47.550;18.828;2023-02-28T05:51:35;9.63;;;3.20;;
72406;SDS011;60396;47.550;18.828;2023-02-28T05:54:03;10.80;;;3.60;;
72406;SDS011;60396;47.550;18.828;2023-02-28T05:56:31;10.93;;;3.62;;
72406;SDS011;60396;47.550;18.828;2023-02-28T05:59:01;9.57;;;3.17;;
72406;SDS011;60396;47.550;18.828;2023-02-28T06:01:36;12.43;;;4.53;;
72406;SDS011;60396;47.550;18.828;2023-02-28T06:04:06;14.15;;;5.78;;
72406;SDS011;60396;47.550;18.828;2023-02-28T06:06:45;10.82;;;4.70;;
72406;SDS011;60396;47.550;18.828;2023-02-28T06:09:17;9.02;;;3.20;;
72406;SDS011;60396;47.550;18.828;2023-02-28T06:11:46;9.00;;;2.97;;
72406;SDS011;60396;47.550;18.828;2023-02-28T06:14:18;11.15;;;3.40;;
72406;SDS011;60396;47.550;18.828;2023-02-28T06:16:46;9.95;;;3.70;;
72406;SDS011;60396;47.550;18.828;2023-02-28T06:19:14;8.95;;;3.40;;
72406;SDS011;60396;47.550;18.828;2023-02-28T06:21:43;8.48;;;3.50;;
72406;SDS011;60396;47.550;18.828;2023-02-28T06:24:11;8.13;;;2.90;;
72406;SDS011;60396;47.550;18.828;2023-02-28T06:26:39;9.80;;;3.47;;
72406;SDS011;60396;47.550;18.828;2023-02-28T06:29:06;8.77;;;3.50;;
72406;SDS011;60396;47.550;18.828;2023-02-28T06:31:35;18.80;;;8.73;;
72406;SDS011;60396;47.550;18.828;2023-02-28T06:34:02;14.27;;;6.03;;
72406;SDS011;60396;47.550;18.828;2023-02-28T06:36:30;12.10;;;3.50;;
72406;SDS011;60396;47.550;18.828;2023-02-28T06:38:58;11.30;;;3.22;;
72406;SDS011;60396;47.550;18.828;2023-02-28T06:41:26;13.57;;;3.50;;
72406;SDS011;60396;47.550;18.828;2023-02-28T06:43:55;9.27;;;3.62;;
72406;SDS011;60396;47.550;18.828;2023-02-28T06:46:23;8.85;;;3.47;;
72406;SDS011;60396;47.550;18.828;2023-02-28T06:48:51;29.47;;;9.90;;
72406;SDS011;60396;47.550;18.828;2023-02-28T06:51:19;19.77;;;6.82;;
72406;SDS011;60396;47.550;18.828;2023-02-28T06:53:49;14.35;;;5.43;;
72406;SDS011;60396;47.550;18.828;2023-02-28T06:56:18;13.90;;;3.70;;
72406;SDS011;60396;47.550;18.828;2023-02-28T06:58:48;9.52;;;3.45;;
72406;SDS011;60396;47.550;18.828;2023-02-28T07:01:16;12.17;;;3.77;;
72406;SDS011;60396;47.550;18.828;2023-02-28T07:03:45;10.05;;;4.60;;
72406;SDS011;60396;47.550;18.828;2023-02-28T07:06:13;11.95;;;4.18;;
72406;SDS011;60396;47.550;18.828;2023-02-28T07:08:41;10.50;;;4.55;;
72406;SDS011;60396;47.550;18.828;2023-02-28T07:11:09;9.57;;;3.10;;
72406;SDS011;60396;47.550;18.828;2023-02-28T07:13:36;10.57;;;4.07;;
72406;SDS011;60396;47.550;18.828;2023-02-28T07:16:05;9.88;;;3.25;;
72406;SDS011;60396;47.550;18.828;2023-02-28T07:18:35;10.15;;;3.40;;
72406;SDS011;60396;47.550;18.828;2023-02-28T07:21:03;11.60;;;3.62;;
72406;SDS011;60396;47.550;18.828;2023-02-28T07:23:32;10.00;;;3.22;;
72406;SDS011;60396;47.550;18.828;2023-02-28T07:26:00;11.77;;;3.13;;
72406;SDS011;60396;47.550;18.828;2023-02-28T07:28:27;12.60;;;4.32;;
72406;SDS011;60396;47.550;18.828;2023-02-28T07:30:55;11.07;;;3.40;;
72406;SDS011;60396;47.550;18.828;2023-02-28T07:33:23;9.85;;;3.10;;
72406;SDS011;60396;47.550;18.828;2023-02-28T07:35:51;10.45;;;3.45;;
72406;SDS011;60396;47.550;18.828;2023-02-28T07:38:19;10.70;;;3.20;;
72406;SDS011;60396;47.550;18.828;2023-02-28T07:40:46;10.55;;;2.97;;
72406;SDS011;60396;47.550;18.828;2023-02-28T07:43:14;9.55;;;2.78;;
72406;SDS011;60396;47.550;18.828;2023-02-28T07:45:42;10.43;;;3.05;;
72406;SDS011;60396;47.550;18.828;2023-02-28T07:48:09;10.65;;;3.30;;
72406;SDS011;60396;47.550;18.828;2023-02-28T07:50:37;7.93;;;2.97;;
72406;SDS011;60396;47.550;18.828;2023-02-28T07:53:05;8.57;;;2.95;;
72406;SDS011;60396;47.550;18.828;2023-02-28T07:55:33;9.07;;;3.15;;
72406;SDS011;60396;47.550;18.828;2023-02-28T07:58:00;9.35;;;3.58;;
72406;SDS011;60396;47.550;18.828;2023-02-28T08:00:28;10.27;;;3.87;;
72406;SDS011;60396;47.550;18.828;2023-02-28T08:02:56;10.90;;;4.10;;
72406;SDS011;60396;47.550;18.828;2023-02-28T08:05:24;11.18;;;4.60;;
72406;SDS011;60396;47.550;18.828;2023-02-28T08:07:51;13.07;;;3.92;;
72406;SDS011;60396;47.550;18.828;2023-02-28T08:10:20;11.52;;;4.12;;
72406;SDS011;60396;47.550;18.828;2023-02-28T08:12:48;9.55;;;3.75;;
72406;SDS011;60396;47.550;18.828;2023-02-28T08:15:15;11.47;;;4.27;;
72406;SDS011;60396;47.550;18.828;2023-02-28T08:17:43;11.48;;;4.35;;
72406;SDS011;60396;47.550;18.828;2023-02-28T08:20:11;11.93;;;4.22;;
72406;SDS011;60396;47.550;18.828;2023-02-28T08:22:39;11.30;;;4.30;;
72406;SDS011;60396;47.550;18.828;2023-02-28T08:25:07;11.68;;;3.92;;
72406;SDS011;60396;47.550;18.828;2023-02-28T08:27:35;19.87;;;4.23;;
72406;SDS011;60396;47.550;18.828;2023-02-28T08:30:03;10.65;;;4.18;;
72406;SDS011;60396;47.550;18.828;2023-02-28T08:32:33;11.93;;;3.70;;
72406;SDS011;60396;47.550;18.828;2023-02-28T08:35:00;11.12;;;4.10;;
72406;SDS011;60396;47.550;18.828;2023-02-28T08:37:30;11.52;;;4.15;;
72406;SDS011;60396;47.550;18.828;2023-02-28T08:39:57;11.27;;;4.20;;
72406;SDS011;60396;47.550;18.828;2023-02-28T08:42:25;12.45;;;4.55;;
72406;SDS011;60396;47.550;18.828;2023-02-28T08:44:53;13.20;;;6.22;;
72406;SDS011;60396;47.550;18.828;2023-02-28T08:47:21;11.77;;;3.70;;
72406;SDS011;60396;47.550;18.828;2023-02-28T08:49:48;11.25;;;4.25;;
72406;SDS011;60396;47.550;18.828;2023-02-28T08:52:16;12.63;;;3.97;;
72406;SDS011;60396;47.550;18.828;2023-02-28T08:54:44;24.10;;;11.20;;
72406;SDS011;60396;47.550;18.828;2023-02-28T08:57:12;10.88;;;4.80;;
72406;SDS011;60396;47.550;18.828;2023-02-28T08:59:40;19.52;;;8.57;;
72406;SDS011;60396;47.550;18.828;2023-02-28T09:02:08;18.37;;;9.98;;
72406;SDS011;60396;47.550;18.828;2023-02-28T09:04:37;11.43;;;5.07;;
72406;SDS011;60396;47.550;18.828;2023-02-28T09:07:04;10.40;;;4.00;;
72406;SDS011;60396;47.550;18.828;2023-02-28T09:09:33;11.80;;;3.10;;
72406;SDS011;60396;47.550;18.828;2023-02-28T09:12:00;6.72;;;2.10;;
72406;SDS011;60396;47.550;18.828;2023-02-28T09:14:29;10.27;;;2.85;;
72406;SDS011;60396;47.550;18.828;2023-02-28T09:16:57;8.73;;;2.53;;
72406;SDS011;60396;47.550;18.828;2023-02-28T09:19:25;7.87;;;2.42;;
72406;SDS011;60396;47.550;18.828;2023-02-28T09:21:53;7.00;;;2.20;;
72406;SDS011;60396;47.550;18.828;2023-02-28T09:24:21;10.13;;;4.65;;
72406;SDS011;60396;47.550;18.828;2023-02-28T09:26:48;7.15;;;2.53;;
72406;SDS011;60396;47.550;18.828;2023-02-28T09:29:31;7.27;;;1.93;;
72406;SDS011;60396;47.550;18.828;2023-02-28T09:32:00;9.55;;;3.45;;
72406;SDS011;60396;47.550;18.828;2023-02-28T09:34:28;9.40;;;3.25;;
72406;SDS011;60396;47.550;18.828;2023-02-28T09:36:58;7.97;;;2.55;;
72406;SDS011;60396;47.550;18.828;2023-02-28T09:39:26;7.80;;;2.20;;
72406;SDS011;60396;47.550;18.828;2023-02-28T09:41:54;7.17;;;2.40;;
72406;SDS011;60396;47.550;18.828;2023-02-28T09:47:12;7.30;;;2.53;;
72406;SDS011;60396;47.550;18.828;2023-02-28T09:49:45;7.18;;;2.70;;
72406;SDS011;60396;47.550;18.828;2023-02-28T09:52:28;9.25;;;2.60;;
72406;SDS011;60396;47.550;18.828;2023-02-28T09:58:18;6.28;;;1.87;;
72406;SDS011;60396;47.550;18.828;2023-02-28T10:03:39;7.87;;;2.33;;
72406;SDS011;60396;47.550;18.828;2023-02-28T10:11:32;6.75;;;2.17;;
72406;SDS011;60396;47.550;18.828;2023-02-28T10:14:15;10.30;;;2.42;;
72406;SDS011;60396;47.550;18.828;2023-02-28T10:16:48;8.93;;;2.87;;
72406;SDS011;60396;47.550;18.828;2023-02-28T10:19:33;9.18;;;2.83;;
72406;SDS011;60396;47.550;18.828;2023-02-28T10:24:49;8.30;;;2.70;;
72406;SDS011;60396;47.550;18.828;2023-02-28T10:27:22;9.57;;;2.80;;
72406;SDS011;60396;47.550;18.828;2023-02-28T10:29:52;8.30;;;2.65;;
72406;SDS011;60396;47.550;18.828;2023-02-28T10:32:25;8.23;;;2.42;;
72406;SDS011;60396;47.550;18.828;2023-02-28T10:37:50;7.50;;;2.62;;
72406;SDS011;60396;47.550;18.828;2023-02-28T10:43:00;7.10;;;2.25;;
72406;SDS011;60396;47.550;18.828;2023-02-28T10:45:32;8.23;;;2.85;;
72406;SDS011;60396;47.550;18.828;2023-02-28T10:55:44;7.53;;;2.42;;
72406;SDS011;60396;47.550;18.828;2023-02-28T10:58:21;7.57;;;2.37;;
72406;SDS011;60396;47.550;18.828;2023-02-28T11:00:53;8.23;;;2.33;;
72406;SDS011;60396;47.550;18.828;2023-02-28T11:03:34;9.35;;;2.37;;
72406;SDS011;60396;47.550;18.828;2023-02-28T11:06:07;9.23;;;2.35;;
72406;SDS011;60396;47.550;18.828;2023-02-28T11:08:42;7.55;;;2.55;;
72406;SDS011;60396;47.550;18.828;2023-02-28T11:11:12;7.53;;;2.40;;
72406;SDS011;60396;47.550;18.828;2023-02-28T11:13:39;6.63;;;2.13;;
72406;SDS011;60396;47.550;18.828;2023-02-28T11:16:09;7.03;;;2.50;;
72406;SDS011;60396;47.550;18.828;2023-02-28T11:18:54;8.32;;;2.30;;
72406;SDS011;60396;47.550;18.828;2023-02-28T11:21:29;10.25;;;2.50;;
72406;SDS011;60396;47.550;18.828;2023-02-28T11:24:02;7.07;;;2.25;;
72406;SDS011;60396;47.550;18.828;2023-02-28T11:26:43;5.83;;;2.00;;
72406;SDS011;60396;47.550;18.828;2023-02-28T11:29:18;5.72;;;1.87;;
72406;SDS011;60396;47.550;18.828;2023-02-28T11:34:33;6.40;;;1.85;;
72406;SDS011;60396;47.550;18.828;2023-02-28T11:37:00;7.90;;;2.17;;
72406;SDS011;60396;47.550;18.828;2023-02-28T11:39:32;6.70;;;2.43;;
72406;SDS011;60396;47.550;18.828;2023-02-28T11:48:04;9.55;;;2.30;;
72406;SDS011;60396;47.550;18.828;2023-02-28T11:57:29;7.53;;;2.65;;
72406;SDS011;60396;47.550;18.828;2023-02-28T12:05:27;7.85;;;2.85;;
72406;SDS011;60396;47.550;18.828;2023-02-28T12:08:07;7.00;;;2.70;;
72406;SDS011;60396;47.550;18.828;2023-02-28T12:13:32;7.37;;;2.72;;
72406;SDS011;60396;47.550;18.828;2023-02-28T12:27:36;8.07;;;2.80;;
72406;SDS011;60396;47.550;18.828;2023-02-28T12:30:19;8.90;;;2.90;;
72406;SDS011;60396;47.550;18.828;2023-02-28T12:32:58;7.45;;;2.65;;
72406;SDS011;60396;47.550;18.828;2023-02-28T12:35:35;8.03;;;2.30;;
72406;SDS011;60396;47.550;18.828;2023-02-28T12:38:08;6.00;;;1.98;;
72406;SDS011;60396;47.550;18.828;2023-02-28T12:40:42;6.32;;;2.30;;
72406;SDS011;60396;47.550;18.828;2023-02-28T12:43:13;6.15;;;2.30;;
72406;SDS011;60396;47.550;18.828;2023-02-28T12:48:26;6.23;;;2.30;;
72406;SDS011;60396;47.550;18.828;2023-02-28T12:50:57;7.45;;;2.30;;
72406;SDS011;60396;47.550;18.828;2023-02-28T12:56:38;5.93;;;1.95;;
72406;SDS011;60396;47.550;18.828;2023-02-28T13:06:58;6.12;;;2.05;;
72406;SDS011;60396;47.550;18.828;2023-02-28T13:09:50;7.22;;;2.17;;
72406;SDS011;60396;47.550;18.828;2023-02-28T13:12:22;6.07;;;2.10;;
72406;SDS011;60396;47.550;18.828;2023-02-28T13:15:07;7.10;;;2.27;;
72406;SDS011;60396;47.550;18.828;2023-02-28T13:17:39;8.77;;;2.58;;
72406;SDS011;60396;47.550;18.828;2023-02-28T13:20:15;6.05;;;2.20;;
72406;SDS011;60396;47.550;18.828;2023-02-28T13:22:47;5.78;;;2.20;;
72406;SDS011;60396;47.550;18.828;2023-02-28T13:27:51;6.60;;;2.40;;
72406;SDS011;60396;47.550;18.828;2023-02-28T13:33:33;7.40;;;2.65;;
72406;SDS011;60396;47.550;18.828;2023-02-28T13:38:36;6.25;;;2.33;;
72406;SDS011;60396;47.550;18.828;2023-02-28T13:44:06;7.72;;;2.72;;
72406;SDS011;60396;47.550;18.828;2023-02-28T13:51:51;8.32;;;3.37;;
72406;SDS011;60396;47.550;18.828;2023-02-28T14:00:28;9.40;;;3.60;;
72406;SDS011;60396;47.550;18.828;2023-02-28T14:11:39;8.52;;;3.00;;
72406;SDS011;60396;47.550;18.828;2023-02-28T14:14:08;8.05;;;3.25;;
72406;SDS011;60396;47.550;18.828;2023-02-28T14:16:44;7.15;;;2.90;;
72406;SDS011;60396;47.550;18.828;2023-02-28T14:19:14;9.75;;;3.28;;
72406;SDS011;60396;47.550;18.828;2023-02-28T14:36:14;10.00;;;3.43;;
72406;SDS011;60396;47.550;18.828;2023-02-28T14:38:59;7.97;;;3.33;;
72406;SDS011;60396;47.550;18.828;2023-02-28T14:41:30;8.10;;;3.30;;
72406;SDS011;60396;47.550;18.828;2023-02-28T14:46:53;10.75;;;3.65;;
72406;SDS011;60396;47.550;18.828;2023-02-28T14:49:27;9.10;;;3.33;;
72406;SDS011;60396;47.550;18.828;2023-02-28T14:54:37;8.65;;;3.55;;
72406;SDS011;60396;47.550;18.828;2023-02-28T14:57:05;8.25;;;3.33;;
72406;SDS011;60396;47.550;18.828;2023-02-28T14:59:34;11.30;;;3.97;;
72406;SDS011;60396;47.550;18.828;2023-02-28T15:02:16;10.00;;;3.60;;
72406;SDS011;60396;47.550;18.828;2023-02-28T15:04:53;10.60;;;3.25;;
72406;SDS011;60396;47.550;18.828;2023-02-28T15:07:40;10.35;;;3.70;;
72406;SDS011;60396;47.550;18.828;2023-02-28T15:10:23;9.23;;;3.78;;
72406;SDS011;60396;47.550;18.828;2023-02-28T15:15:51;9.50;;;3.83;;
72406;SDS011;60396;47.550;18.828;2023-02-28T15:21:18;9.13;;;3.95;;
72406;SDS011;60396;47.550;18.828;2023-02-28T15:23:50;8.95;;;3.65;;
72406;SDS011;60396;47.550;18.828;2023-02-28T15:26:21;11.07;;;4.00;;
72406;SDS011;60396;47.550;18.828;2023-02-28T15:28:51;10.00;;;3.83;;
72406;SDS011;60396;47.550;18.828;2023-02-28T15:31:24;10.73;;;4.37;;
72406;SDS011;60396;47.550;18.828;2023-02-28T15:34:03;9.73;;;4.12;;
72406;SDS011;60396;47.550;18.828;2023-02-28T15:36:33;10.25;;;3.97;;
72406;SDS011;60396;47.550;18.828;2023-02-28T15:41:54;9.03;;;3.23;;
72406;SDS011;60396;47.550;18.828;2023-02-28T15:44:37;9.50;;;3.20;;
72406;SDS011;60396;47.550;18.828;2023-02-28T15:47:21;9.00;;;3.95;;
72406;SDS011;60396;47.550;18.828;2023-02-28T15:49:53;12.43;;;3.92;;
72406;SDS011;60396;47.550;18.828;2023-02-28T15:52:38;9.60;;;3.62;;
72406;SDS011;60396;47.550;18.828;2023-02-28T15:57:50;10.20;;;3.65;;
72406;SDS011;60396;47.550;18.828;2023-02-28T16:00:20;9.13;;;3.75;;
72406;SDS011;60396;47.550;18.828;2023-02-28T16:02:50;10.57;;;4.35;;
72406;SDS011;60396;47.550;18.828;2023-02-28T16:05:28;10.15;;;3.75;;
72406;SDS011;60396;47.550;18.828;2023-02-28T16:08:01;7.50;;;3.23;;
72406;SDS011;60396;47.550;18.828;2023-02-28T16:10:38;8.77;;;3.83;;
72406;SDS011;60396;47.550;18.828;2023-02-28T16:13:08;11.18;;;3.75;;
72406;SDS011;60396;47.550;18.828;2023-02-28T16:15:41;11.05;;;3.80;;
72406;SDS011;60396;47.550;18.828;2023-02-28T16:18:11;8.75;;;3.67;;
72406;SDS011;60396;47.550;18.828;2023-02-28T16:20:39;10.00;;;3.90;;
72406;SDS011;60396;47.550;18.828;2023-02-28T16:23:07;11.77;;;3.83;;
72406;SDS011;60396;47.550;18.828;2023-02-28T16:25:37;10.93;;;3.87;;
72406;SDS011;60396;47.550;18.828;2023-02-28T16:28:12;9.90;;;3.70;;
72406;SDS011;60396;47.550;18.828;2023-02-28T16:30:46;10.55;;;4.15;;
72406;SDS011;60396;47.550;18.828;2023-02-28T16:33:13;8.90;;;3.80;;
72406;SDS011;60396;47.550;18.828;2023-02-28T16:35:41;12.50;;;3.95;;
72406;SDS011;60396;47.550;18.828;2023-02-28T16:38:09;10.35;;;3.40;;
72406;SDS011;60396;47.550;18.828;2023-02-28T16:40:37;11.95;;;4.00;;
72406;SDS011;60396;47.550;18.828;2023-02-28T16:43:07;11.95;;;3.83;;
72406;SDS011;60396;47.550;18.828;2023-02-28T16:45:40;9.57;;;3.80;;
72406;SDS011;60396;47.550;18.828;2023-02-28T16:48:11;11.12;;;4.87;;
72406;SDS011;60396;47.550;18.828;2023-02-28T16:50:41;12.10;;;4.90;;
72406;SDS011;60396;47.550;18.828;2023-02-28T16:53:12;11.27;;;4.70;;
72406;SDS011;60396;47.550;18.828;2023-02-28T16:55:40;9.38;;;3.97;;
72406;SDS011;60396;47.550;18.828;2023-02-28T16:58:13;12.20;;;5.13;;
72406;SDS011;60396;47.550;18.828;2023-02-28T17:00:42;15.20;;;5.80;;
72406;SDS011;60396;47.550;18.828;2023-02-28T17:03:22;14.52;;;5.60;;
72406;SDS011;60396;47.550;18.828;2023-02-28T17:05:59;13.18;;;5.55;;
72406;SDS011;60396;47.550;18.828;2023-02-28T17:08:28;13.23;;;5.05;;
72406;SDS011;60396;47.550;18.828;2023-02-28T17:10:56;12.60;;;5.33;;
72406;SDS011;60396;47.550;18.828;2023-02-28T17:13:25;11.60;;;4.32;;
72406;SDS011;60396;47.550;18.828;2023-02-28T17:15:53;10.38;;;4.00;;
72406;SDS011;60396;47.550;18.828;2023-02-28T17:18:21;13.82;;;4.55;;
72406;SDS011;60396;47.550;18.828;2023-02-28T17:20:48;12.55;;;4.18;;
72406;SDS011;60396;47.550;18.828;2023-02-28T17:23:16;17.80;;;4.10;;
72406;SDS011;60396;47.550;18.828;2023-02-28T17:25:44;12.45;;;3.67;;
72406;SDS011;60396;47.550;18.828;2023-02-28T17:28:23;10.13;;;4.18;;
72406;SDS011;60396;47.550;18.828;2023-02-28T17:30:51;10.60;;;4.18;;
72406;SDS011;60396;47.550;18.828;2023-02-28T17:33:19;10.27;;;4.18;;
72406;SDS011;60396;47.550;18.828;2023-02-28T17:35:51;11.70;;;4.37;;
72406;SDS011;60396;47.550;18.828;2023-02-28T17:38:19;13.13;;;4.82;;
72406;SDS011;60396;47.550;18.828;2023-02-28T17:40:47;12.43;;;4.50;;
72406;SDS011;60396;47.550;18.828;2023-02-28T17:43:15;14.00;;;4.75;;
72406;SDS011;60396;47.550;18.828;2023-02-28T17:45:42;9.68;;;4.22;;
72406;SDS011;60396;47.550;18.828;2023-02-28T17:48:11;12.43;;;4.37;;